sensor_id;sensor_type;location;lat;lon;timestamp;P1;durP1;ratioP1;P2;durP2;ratioP2
1765;SDS011;880;52.452;8.656;2023-06-14T00:01:47;5.45;;;4.50;;
1765;SDS011;880;52.452;8.656;2023-06-14T00:04:15;4.85;;;4.50;;
1765;SDS011;880;52.452;8.656;2023-06-14T00:06:47;4.57;;;3.95;;
1765;SDS011;880;52.452;8.656;2023-06-14T00:09:17;6.07;;;4.47;;
1765;SDS011;880;52.452;8.656;2023-06-14T00:11:44;5.25;;;4.78;;
1765;SDS011;880;52.452;8.656;2023-06-14T00:14:11;5.60;;;4.55;;
1765;SDS011;880;52.452;8.656;2023-06-14T00:16:39;5.60;;;3.70;;
1765;SDS011;880;52.452;8.656;2023-06-14T00:19:09;7.43;;;4.72;;
1765;SDS011;880;52.452;8.656;2023-06-14T00:21:37;4.65;;;3.85;;
1765;SDS011;880;52.452;8.656;2023-06-14T00:24:04;4.63;;;4.32;;
1765;SDS011;880;52.452;8.656;2023-06-14T00:26:31;4.40;;;4.00;;
1765;SDS011;880;52.452;8.656;2023-06-14T00:28:58;4.80;;;4.40;;
1765;SDS011;880;52.452;8.656;2023-06-14T00:31:25;3.83;;;3.53;;
1765;SDS011;880;52.452;8.656;2023-06-14T00:33:53;3.92;;;3.63;;
1765;SDS011;880;52.452;8.656;2023-06-14T00:36:20;4.35;;;4.03;;
1765;SDS011;880;52.452;8.656;2023-06-14T00:38:47;5.80;;;3.90;;
1765;SDS011;880;52.452;8.656;2023-06-14T00:41:14;4.90;;;4.50;;
1765;SDS011;880;52.452;8.656;2023-06-14T00:43:41;6.53;;;4.35;;
1765;SDS011;880;52.452;8.656;2023-06-14T00:46:08;5.28;;;4.22;;
1765;SDS011;880;52.452;8.656;2023-06-14T00:48:35;4.53;;;3.83;;
1765;SDS011;880;52.452;8.656;2023-06-14T00:51:05;4.03;;;3.67;;
1765;SDS011;880;52.452;8.656;2023-06-14T00:53:32;4.68;;;4.28;;
1765;SDS011;880;52.452;8.656;2023-06-14T00:56:02;4.68;;;4.15;;
1765;SDS011;880;52.452;8.656;2023-06-14T00:58:29;3.50;;;3.22;;
1765;SDS011;880;52.452;8.656;2023-06-14T01:00:57;5.78;;;4.25;;
1765;SDS011;880;52.452;8.656;2023-06-14T01:03:24;4.65;;;3.97;;
1765;SDS011;880;52.452;8.656;2023-06-14T01:05:53;4.55;;;4.10;;
1765;SDS011;880;52.452;8.656;2023-06-14T01:08:57;4.32;;;3.92;;
1765;SDS011;880;52.452;8.656;2023-06-14T01:14:28;4.82;;;4.15;;
1765;SDS011;880;52.452;8.656;2023-06-14T01:16:58;4.57;;;4.13;;
1765;SDS011;880;52.452;8.656;2023-06-14T01:19:26;5.63;;;4.35;;
1765;SDS011;880;52.452;8.656;2023-06-14T01:21:57;4.10;;;3.60;;
1765;SDS011;880;52.452;8.656;2023-06-14T01:24:27;4.65;;;3.92;;
1765;SDS011;880;52.452;8.656;2023-06-14T01:26:58;4.88;;;4.43;;
1765;SDS011;880;52.452;8.656;2023-06-14T01:29:27;5.85;;;4.05;;
1765;SDS011;880;52.452;8.656;2023-06-14T01:31:59;5.43;;;4.45;;
1765;SDS011;880;52.452;8.656;2023-06-14T01:34:29;4.30;;;3.95;;
1765;SDS011;880;52.452;8.656;2023-06-14T01:36:57;5.82;;;4.38;;
1765;SDS011;880;52.452;8.656;2023-06-14T01:39:27;6.03;;;4.45;;
1765;SDS011;880;52.452;8.656;2023-06-14T01:41:55;6.20;;;4.43;;
1765;SDS011;880;52.452;8.656;2023-06-14T01:44:23;4.68;;;4.28;;
1765;SDS011;880;52.452;8.656;2023-06-14T01:46:51;4.97;;;4.45;;
1765;SDS011;880;52.452;8.656;2023-06-14T01:49:21;5.30;;;4.35;;
1765;SDS011;880;52.452;8.656;2023-06-14T01:51:48;4.93;;;4.50;;
1765;SDS011;880;52.452;8.656;2023-06-14T01:54:15;4.65;;;4.30;;
1765;SDS011;880;52.452;8.656;2023-06-14T01:56:42;5.82;;;4.47;;
1765;SDS011;880;52.452;8.656;2023-06-14T01:59:09;4.72;;;4.32;;
1765;SDS011;880;52.452;8.656;2023-06-14T02:01:36;5.07;;;4.57;;
1765;SDS011;880;52.452;8.656;2023-06-14T02:04:03;8.50;;;4.35;;
1765;SDS011;880;52.452;8.656;2023-06-14T02:06:31;4.60;;;4.15;;
1765;SDS011;880;52.452;8.656;2023-06-14T02:08:58;5.40;;;4.22;;
1765;SDS011;880;52.452;8.656;2023-06-14T02:11:27;4.93;;;4.43;;
1765;SDS011;880;52.452;8.656;2023-06-14T02:13:54;7.72;;;4.55;;
1765;SDS011;880;52.452;8.656;2023-06-14T02:16:22;4.50;;;4.13;;
1765;SDS011;880;52.452;8.656;2023-06-14T02:18:51;5.50;;;4.68;;
1765;SDS011;880;52.452;8.656;2023-06-14T02:21:17;6.80;;;4.53;;
1765;SDS011;880;52.452;8.656;2023-06-14T02:23:45;4.43;;;4.13;;
1765;SDS011;880;52.452;8.656;2023-06-14T02:26:12;6.28;;;4.60;;
1765;SDS011;880;52.452;8.656;2023-06-14T02:28:39;4.15;;;3.83;;
1765;SDS011;880;52.452;8.656;2023-06-14T02:31:07;6.03;;;3.97;;
1765;SDS011;880;52.452;8.656;2023-06-14T02:33:35;4.57;;;4.18;;
1765;SDS011;880;52.452;8.656;2023-06-14T02:36:02;5.68;;;3.90;;
1765;SDS011;880;52.452;8.656;2023-06-14T02:38:29;5.95;;;3.88;;
1765;SDS011;880;52.452;8.656;2023-06-14T02:40:56;4.93;;;4.38;;
1765;SDS011;880;52.452;8.656;2023-06-14T02:43:25;4.93;;;4.18;;
1765;SDS011;880;52.452;8.656;2023-06-14T02:45:52;6.60;;;4.35;;
1765;SDS011;880;52.452;8.656;2023-06-14T02:48:20;6.38;;;4.38;;
1765;SDS011;880;52.452;8.656;2023-06-14T02:50:47;5.32;;;4.68;;
1765;SDS011;880;52.452;8.656;2023-06-14T02:53:14;5.82;;;4.55;;
1765;SDS011;880;52.452;8.656;2023-06-14T02:55:42;5.28;;;4.78;;
1765;SDS011;880;52.452;8.656;2023-06-14T02:58:09;6.85;;;4.32;;
1765;SDS011;880;52.452;8.656;2023-06-14T03:00:36;5.97;;;4.68;;
1765;SDS011;880;52.452;8.656;2023-06-14T03:03:04;5.85;;;3.90;;
1765;SDS011;880;52.452;8.656;2023-06-14T03:05:44;5.43;;;4.90;;
1765;SDS011;880;52.452;8.656;2023-06-14T03:08:18;5.03;;;4.63;;
1765;SDS011;880;52.452;8.656;2023-06-14T03:10:49;6.90;;;5.38;;
1765;SDS011;880;52.452;8.656;2023-06-14T03:13:16;8.95;;;5.50;;
1765;SDS011;880;52.452;8.656;2023-06-14T03:18:13;5.50;;;5.10;;
1765;SDS011;880;52.452;8.656;2023-06-14T03:20:41;16.52;;;6.00;;
1765;SDS011;880;52.452;8.656;2023-06-14T03:23:09;6.00;;;5.40;;
1765;SDS011;880;52.452;8.656;2023-06-14T03:25:36;8.23;;;6.15;;
1765;SDS011;880;52.452;8.656;2023-06-14T03:28:05;5.75;;;5.35;;
1765;SDS011;880;52.452;8.656;2023-06-14T03:30:32;6.60;;;5.63;;
1765;SDS011;880;52.452;8.656;2023-06-14T03:33:00;6.47;;;5.72;;
1765;SDS011;880;52.452;8.656;2023-06-14T03:35:33;8.35;;;6.18;;
1765;SDS011;880;52.452;8.656;2023-06-14T03:38:00;6.53;;;5.47;;
1765;SDS011;880;52.452;8.656;2023-06-14T03:40:29;6.00;;;5.18;;
1765;SDS011;880;52.452;8.656;2023-06-14T03:43:01;8.38;;;5.75;;
1765;SDS011;880;52.452;8.656;2023-06-14T03:45:28;6.38;;;5.78;;
1765;SDS011;880;52.452;8.656;2023-06-14T03:47:57;6.40;;;5.80;;
1765;SDS011;880;52.452;8.656;2023-06-14T03:50:26;6.22;;;5.65;;
1765;SDS011;880;52.452;8.656;2023-06-14T03:52:54;6.45;;;5.95;;
1765;SDS011;880;52.452;8.656;2023-06-14T03:55:21;7.28;;;5.72;;
1765;SDS011;880;52.452;8.656;2023-06-14T03:58:11;6.78;;;6.18;;
1765;SDS011;880;52.452;8.656;2023-06-14T04:00:39;6.05;;;5.57;;
1765;SDS011;880;52.452;8.656;2023-06-14T04:03:06;6.80;;;5.50;;
1765;SDS011;880;52.452;8.656;2023-06-14T04:05:34;7.55;;;6.13;;
1765;SDS011;880;52.452;8.656;2023-06-14T04:08:02;6.65;;;6.05;;
1765;SDS011;880;52.452;8.656;2023-06-14T04:10:30;7.05;;;5.63;;
1765;SDS011;880;52.452;8.656;2023-06-14T04:12:57;8.07;;;5.07;;
1765;SDS011;880;52.452;8.656;2023-06-14T04:15:24;6.07;;;5.28;;
1765;SDS011;880;52.452;8.656;2023-06-14T04:17:56;9.02;;;5.65;;
1765;SDS011;880;52.452;8.656;2023-06-14T04:20:24;5.32;;;4.93;;
1765;SDS011;880;52.452;8.656;2023-06-14T04:22:52;5.20;;;4.90;;
1765;SDS011;880;52.452;8.656;2023-06-14T04:25:19;5.50;;;4.95;;
1765;SDS011;880;52.452;8.656;2023-06-14T04:27:50;5.22;;;4.72;;
1765;SDS011;880;52.452;8.656;2023-06-14T04:30:19;5.75;;;5.25;;
1765;SDS011;880;52.452;8.656;2023-06-14T04:32:49;5.22;;;4.82;;
1765;SDS011;880;52.452;8.656;2023-06-14T04:35:20;7.65;;;5.30;;
1765;SDS011;880;52.452;8.656;2023-06-14T04:37:50;5.05;;;4.63;;
1765;SDS011;880;52.452;8.656;2023-06-14T04:40:18;6.10;;;5.55;;
1765;SDS011;880;52.452;8.656;2023-06-14T04:42:45;6.53;;;5.93;;
1765;SDS011;880;52.452;8.656;2023-06-14T04:45:14;6.63;;;5.38;;
1765;SDS011;880;52.452;8.656;2023-06-14T04:47:43;5.90;;;5.40;;
1765;SDS011;880;52.452;8.656;2023-06-14T04:50:10;8.25;;;4.88;;
1765;SDS011;880;52.452;8.656;2023-06-14T04:52:39;6.20;;;5.60;;
1765;SDS011;880;52.452;8.656;2023-06-14T04:55:08;5.88;;;5.38;;
1765;SDS011;880;52.452;8.656;2023-06-14T04:57:36;5.57;;;5.07;;
1765;SDS011;880;52.452;8.656;2023-06-14T05:00:05;6.15;;;5.65;;
1765;SDS011;880;52.452;8.656;2023-06-14T05:02:33;5.88;;;5.25;;
1765;SDS011;880;52.452;8.656;2023-06-14T05:05:02;5.20;;;4.80;;
1765;SDS011;880;52.452;8.656;2023-06-14T05:07:32;5.75;;;5.32;;
1765;SDS011;880;52.452;8.656;2023-06-14T05:10:00;5.63;;;5.20;;
1765;SDS011;880;52.452;8.656;2023-06-14T05:12:28;6.57;;;5.60;;
1765;SDS011;880;52.452;8.656;2023-06-14T05:14:55;5.95;;;5.40;;
1765;SDS011;880;52.452;8.656;2023-06-14T05:17:24;6.70;;;5.60;;
1765;SDS011;880;52.452;8.656;2023-06-14T05:19:54;4.95;;;4.55;;
1765;SDS011;880;52.452;8.656;2023-06-14T05:22:22;6.40;;;5.30;;
1765;SDS011;880;52.452;8.656;2023-06-14T05:24:49;11.90;;;5.05;;
1765;SDS011;880;52.452;8.656;2023-06-14T05:27:16;4.80;;;4.25;;
1765;SDS011;880;52.452;8.656;2023-06-14T05:29:43;6.10;;;4.95;;
1765;SDS011;880;52.452;8.656;2023-06-14T05:32:10;5.97;;;5.32;;
1765;SDS011;880;52.452;8.656;2023-06-14T05:34:37;6.32;;;4.82;;
1765;SDS011;880;52.452;8.656;2023-06-14T05:37:04;5.38;;;4.88;;
1765;SDS011;880;52.452;8.656;2023-06-14T05:39:31;6.18;;;5.05;;
1765;SDS011;880;52.452;8.656;2023-06-14T05:41:58;4.90;;;4.53;;
1765;SDS011;880;52.452;8.656;2023-06-14T05:44:25;6.40;;;4.47;;
1765;SDS011;880;52.452;8.656;2023-06-14T05:46:52;5.45;;;4.95;;
1765;SDS011;880;52.452;8.656;2023-06-14T05:49:19;7.18;;;5.32;;
1765;SDS011;880;52.452;8.656;2023-06-14T05:51:46;7.82;;;4.93;;
1765;SDS011;880;52.452;8.656;2023-06-14T05:54:14;5.32;;;4.82;;
1765;SDS011;880;52.452;8.656;2023-06-14T05:56:41;5.25;;;4.78;;
1765;SDS011;880;52.452;8.656;2023-06-14T05:59:08;5.70;;;4.22;;
1765;SDS011;880;52.452;8.656;2023-06-14T06:01:35;4.95;;;4.55;;
1765;SDS011;880;52.452;8.656;2023-06-14T06:04:03;7.28;;;5.43;;
1765;SDS011;880;52.452;8.656;2023-06-14T06:06:30;5.85;;;4.53;;
1765;SDS011;880;52.452;8.656;2023-06-14T06:08:57;3.53;;;3.22;;
1765;SDS011;880;52.452;8.656;2023-06-14T06:11:24;4.68;;;4.28;;
1765;SDS011;880;52.452;8.656;2023-06-14T06:13:55;5.45;;;5.05;;
1765;SDS011;880;52.452;8.656;2023-06-14T06:16:22;5.53;;;4.45;;
1765;SDS011;880;52.452;8.656;2023-06-14T06:18:49;4.90;;;4.60;;
1765;SDS011;880;52.452;8.656;2023-06-14T06:21:16;3.97;;;3.67;;
1765;SDS011;880;52.452;8.656;2023-06-14T06:23:43;6.35;;;4.78;;
1765;SDS011;880;52.452;8.656;2023-06-14T06:26:10;5.00;;;4.60;;
1765;SDS011;880;52.452;8.656;2023-06-14T06:28:37;5.13;;;4.72;;
1765;SDS011;880;52.452;8.656;2023-06-14T06:31:04;5.10;;;4.80;;
1765;SDS011;880;52.452;8.656;2023-06-14T06:33:31;4.78;;;4.43;;
1765;SDS011;880;52.452;8.656;2023-06-14T06:35:58;4.97;;;4.63;;
1765;SDS011;880;52.452;8.656;2023-06-14T06:38:25;5.68;;;5.28;;
1765;SDS011;880;52.452;8.656;2023-06-14T06:40:52;4.80;;;4.50;;
1765;SDS011;880;52.452;8.656;2023-06-14T06:43:20;5.10;;;4.68;;
1765;SDS011;880;52.452;8.656;2023-06-14T06:45:48;6.60;;;4.97;;
1765;SDS011;880;52.452;8.656;2023-06-14T06:48:15;5.95;;;5.35;;
1765;SDS011;880;52.452;8.656;2023-06-14T06:50:43;5.13;;;4.78;;
1765;SDS011;880;52.452;8.656;2023-06-14T06:53:10;7.93;;;4.72;;
1765;SDS011;880;52.452;8.656;2023-06-14T06:55:37;5.22;;;4.72;;
1765;SDS011;880;52.452;8.656;2023-06-14T06:58:04;4.78;;;4.40;;
1765;SDS011;880;52.452;8.656;2023-06-14T07:00:31;4.63;;;4.32;;
1765;SDS011;880;52.452;8.656;2023-06-14T07:02:58;3.90;;;3.60;;
1765;SDS011;880;52.452;8.656;2023-06-14T07:05:26;8.43;;;4.65;;
1765;SDS011;880;52.452;8.656;2023-06-14T07:07:53;6.30;;;5.15;;
1765;SDS011;880;52.452;8.656;2023-06-14T07:10:23;6.22;;;5.07;;
1765;SDS011;880;52.452;8.656;2023-06-14T07:12:53;5.18;;;4.85;;
1765;SDS011;880;52.452;8.656;2023-06-14T07:15:20;4.63;;;4.32;;
1765;SDS011;880;52.452;8.656;2023-06-14T07:17:47;4.35;;;4.10;;
1765;SDS011;880;52.452;8.656;2023-06-14T07:20:14;4.28;;;4.07;;
1765;SDS011;880;52.452;8.656;2023-06-14T07:22:42;4.40;;;4.10;;
1765;SDS011;880;52.452;8.656;2023-06-14T07:25:10;4.95;;;4.45;;
1765;SDS011;880;52.452;8.656;2023-06-14T07:27:41;4.78;;;4.35;;
1765;SDS011;880;52.452;8.656;2023-06-14T07:30:09;4.47;;;4.22;;
1765;SDS011;880;52.452;8.656;2023-06-14T07:32:37;4.70;;;4.47;;
1765;SDS011;880;52.452;8.656;2023-06-14T07:35:04;4.68;;;3.95;;
1765;SDS011;880;52.452;8.656;2023-06-14T07:37:32;5.13;;;4.82;;
1765;SDS011;880;52.452;8.656;2023-06-14T07:39:59;4.90;;;4.60;;
1765;SDS011;880;52.452;8.656;2023-06-14T07:42:26;4.93;;;4.63;;
1765;SDS011;880;52.452;8.656;2023-06-14T07:44:54;4.65;;;4.45;;
1765;SDS011;880;52.452;8.656;2023-06-14T07:47:21;5.90;;;5.60;;
1765;SDS011;880;52.452;8.656;2023-06-14T07:49:48;4.50;;;4.20;;
1765;SDS011;880;52.452;8.656;2023-06-14T07:52:15;5.53;;;5.22;;
1765;SDS011;880;52.452;8.656;2023-06-14T07:54:42;5.60;;;5.15;;
1765;SDS011;880;52.452;8.656;2023-06-14T07:57:09;5.15;;;4.75;;
1765;SDS011;880;52.452;8.656;2023-06-14T07:59:36;5.50;;;5.10;;
1765;SDS011;880;52.452;8.656;2023-06-14T08:02:03;5.40;;;4.97;;
1765;SDS011;880;52.452;8.656;2023-06-14T08:04:31;5.57;;;5.18;;
1765;SDS011;880;52.452;8.656;2023-06-14T08:06:59;5.03;;;4.72;;
1765;SDS011;880;52.452;8.656;2023-06-14T08:09:27;6.72;;;6.22;;
1765;SDS011;880;52.452;8.656;2023-06-14T08:11:55;6.50;;;5.20;;
1765;SDS011;880;52.452;8.656;2023-06-14T08:14:22;6.57;;;6.03;;
1765;SDS011;880;52.452;8.656;2023-06-14T08:16:49;6.15;;;5.75;;
1765;SDS011;880;52.452;8.656;2023-06-14T08:19:16;7.25;;;6.72;;
1765;SDS011;880;52.452;8.656;2023-06-14T08:21:44;6.13;;;5.82;;
1765;SDS011;880;52.452;8.656;2023-06-14T08:24:12;7.97;;;5.22;;
1765;SDS011;880;52.452;8.656;2023-06-14T08:26:40;6.22;;;5.75;;
1765;SDS011;880;52.452;8.656;2023-06-14T08:29:07;6.03;;;5.53;;
1765;SDS011;880;52.452;8.656;2023-06-14T08:31:34;5.75;;;5.43;;
1765;SDS011;880;52.452;8.656;2023-06-14T08:34:01;5.82;;;5.50;;
1765;SDS011;880;52.452;8.656;2023-06-14T08:36:32;4.72;;;4.53;;
1765;SDS011;880;52.452;8.656;2023-06-14T08:38:59;4.70;;;4.43;;
1765;SDS011;880;52.452;8.656;2023-06-14T08:41:26;5.10;;;4.80;;
1765;SDS011;880;52.452;8.656;2023-06-14T08:43:56;6.30;;;6.00;;
1765;SDS011;880;52.452;8.656;2023-06-14T08:46:24;6.38;;;6.05;;
1765;SDS011;880;52.452;8.656;2023-06-14T08:48:54;6.80;;;6.15;;
1765;SDS011;880;52.452;8.656;2023-06-14T08:51:25;6.35;;;6.03;;
1765;SDS011;880;52.452;8.656;2023-06-14T08:54:00;6.40;;;6.10;;
1765;SDS011;880;52.452;8.656;2023-06-14T08:56:28;6.25;;;5.95;;
1765;SDS011;880;52.452;8.656;2023-06-14T08:58:56;5.85;;;5.35;;
1765;SDS011;880;52.452;8.656;2023-06-14T09:01:26;6.03;;;5.63;;
1765;SDS011;880;52.452;8.656;2023-06-14T09:03:53;5.28;;;4.97;;
1765;SDS011;880;52.452;8.656;2023-06-14T09:06:23;5.97;;;5.43;;
1765;SDS011;880;52.452;8.656;2023-06-14T09:08:51;7.35;;;6.15;;
1765;SDS011;880;52.452;8.656;2023-06-14T09:11:18;6.97;;;6.45;;
1765;SDS011;880;52.452;8.656;2023-06-14T09:13:46;5.65;;;5.35;;
1765;SDS011;880;52.452;8.656;2023-06-14T09:16:13;6.18;;;5.63;;
1765;SDS011;880;52.452;8.656;2023-06-14T09:18:41;7.25;;;6.85;;
1765;SDS011;880;52.452;8.656;2023-06-14T09:21:11;6.97;;;6.50;;
1765;SDS011;880;52.452;8.656;2023-06-14T09:23:39;6.68;;;6.18;;
1765;SDS011;880;52.452;8.656;2023-06-14T09:26:15;7.05;;;6.68;;
1765;SDS011;880;52.452;8.656;2023-06-14T09:28:46;6.35;;;5.95;;
1765;SDS011;880;52.452;8.656;2023-06-14T09:31:15;7.30;;;6.75;;
1765;SDS011;880;52.452;8.656;2023-06-14T09:33:45;6.95;;;6.05;;
1765;SDS011;880;52.452;8.656;2023-06-14T09:36:24;6.85;;;6.28;;
1765;SDS011;880;52.452;8.656;2023-06-14T09:38:58;6.40;;;5.88;;
1765;SDS011;880;52.452;8.656;2023-06-14T09:41:34;7.57;;;5.82;;
1765;SDS011;880;52.452;8.656;2023-06-14T09:44:06;5.30;;;5.00;;
1765;SDS011;880;52.452;8.656;2023-06-14T09:46:42;5.70;;;5.40;;
1765;SDS011;880;52.452;8.656;2023-06-14T09:49:10;6.57;;;5.85;;
1765;SDS011;880;52.452;8.656;2023-06-14T09:51:45;5.90;;;5.60;;
1765;SDS011;880;52.452;8.656;2023-06-14T09:54:19;13.23;;;6.40;;
1765;SDS011;880;52.452;8.656;2023-06-14T09:56:49;6.65;;;6.05;;
1765;SDS011;880;52.452;8.656;2023-06-14T09:59:21;6.95;;;6.50;;
1765;SDS011;880;52.452;8.656;2023-06-14T10:01:57;5.95;;;5.65;;
1765;SDS011;880;52.452;8.656;2023-06-14T10:04:29;6.45;;;6.05;;
1765;SDS011;880;52.452;8.656;2023-06-14T10:06:57;9.05;;;5.82;;
1765;SDS011;880;52.452;8.656;2023-06-14T10:09:26;6.22;;;5.68;;
1765;SDS011;880;52.452;8.656;2023-06-14T10:11:58;6.15;;;5.75;;
1765;SDS011;880;52.452;8.656;2023-06-14T10:14:25;6.22;;;5.82;;
1765;SDS011;880;52.452;8.656;2023-06-14T10:17:00;6.32;;;5.75;;
1765;SDS011;880;52.452;8.656;2023-06-14T10:19:40;7.15;;;6.75;;
1765;SDS011;880;52.452;8.656;2023-06-14T10:22:23;6.50;;;6.10;;
1765;SDS011;880;52.452;8.656;2023-06-14T10:25:07;6.15;;;5.65;;
1765;SDS011;880;52.452;8.656;2023-06-14T10:27:40;10.50;;;6.05;;
1765;SDS011;880;52.452;8.656;2023-06-14T10:30:14;6.93;;;6.43;;
1765;SDS011;880;52.452;8.656;2023-06-14T10:35:34;6.03;;;5.65;;
1765;SDS011;880;52.452;8.656;2023-06-14T10:38:08;6.03;;;5.55;;
1765;SDS011;880;52.452;8.656;2023-06-14T10:40:36;6.60;;;6.30;;
1765;SDS011;880;52.452;8.656;2023-06-14T10:43:20;6.18;;;5.88;;
1765;SDS011;880;52.452;8.656;2023-06-14T10:48:44;6.97;;;6.40;;
1765;SDS011;880;52.452;8.656;2023-06-14T10:53:48;6.40;;;5.95;;
1765;SDS011;880;52.452;8.656;2023-06-14T10:56:27;6.30;;;5.85;;
1765;SDS011;880;52.452;8.656;2023-06-14T10:58:56;7.05;;;6.55;;
1765;SDS011;880;52.452;8.656;2023-06-14T11:02:11;6.88;;;6.50;;
1765;SDS011;880;52.452;8.656;2023-06-14T11:04:48;6.70;;;6.10;;
1765;SDS011;880;52.452;8.656;2023-06-14T11:07:31;6.32;;;5.88;;
1765;SDS011;880;52.452;8.656;2023-06-14T11:10:38;6.38;;;6.07;;
1765;SDS011;880;52.452;8.656;2023-06-14T11:13:07;7.15;;;6.65;;
1765;SDS011;880;52.452;8.656;2023-06-14T11:15:35;6.88;;;6.38;;
1765;SDS011;880;52.452;8.656;2023-06-14T11:18:07;6.25;;;5.65;;
1765;SDS011;880;52.452;8.656;2023-06-14T11:20:36;6.45;;;5.95;;
1765;SDS011;880;52.452;8.656;2023-06-14T11:23:03;8.73;;;6.75;;
1765;SDS011;880;52.452;8.656;2023-06-14T11:25:33;7.63;;;6.97;;
1765;SDS011;880;52.452;8.656;2023-06-14T11:28:01;7.13;;;6.60;;
1765;SDS011;880;52.452;8.656;2023-06-14T11:30:28;7.72;;;7.15;;
1765;SDS011;880;52.452;8.656;2023-06-14T11:32:55;7.20;;;6.70;;
1765;SDS011;880;52.452;8.656;2023-06-14T11:35:24;6.38;;;6.07;;
1765;SDS011;880;52.452;8.656;2023-06-14T11:37:55;6.43;;;5.90;;
1765;SDS011;880;52.452;8.656;2023-06-14T11:40:24;6.50;;;6.13;;
1765;SDS011;880;52.452;8.656;2023-06-14T11:42:59;7.70;;;7.03;;
1765;SDS011;880;52.452;8.656;2023-06-14T11:45:28;6.50;;;6.18;;
1765;SDS011;880;52.452;8.656;2023-06-14T11:47:57;7.25;;;6.75;;
1765;SDS011;880;52.452;8.656;2023-06-14T11:50:26;7.32;;;6.68;;
1765;SDS011;880;52.452;8.656;2023-06-14T11:52:55;6.90;;;6.50;;
1765;SDS011;880;52.452;8.656;2023-06-14T11:55:24;6.82;;;6.40;;
1765;SDS011;880;52.452;8.656;2023-06-14T11:57:54;6.63;;;6.15;;
1765;SDS011;880;52.452;8.656;2023-06-14T12:00:25;7.68;;;7.03;;
1765;SDS011;880;52.452;8.656;2023-06-14T12:02:54;7.18;;;6.68;;
1765;SDS011;880;52.452;8.656;2023-06-14T12:05:23;6.85;;;6.55;;
1765;SDS011;880;52.452;8.656;2023-06-14T12:10:27;7.53;;;7.07;;
1765;SDS011;880;52.452;8.656;2023-06-14T12:12:58;7.43;;;6.97;;
1765;SDS011;880;52.452;8.656;2023-06-14T12:15:29;8.15;;;7.72;;
1765;SDS011;880;52.452;8.656;2023-06-14T12:17:57;7.35;;;6.85;;
1765;SDS011;880;52.452;8.656;2023-06-14T12:20:28;7.55;;;6.85;;
1765;SDS011;880;52.452;8.656;2023-06-14T12:23:02;6.90;;;6.53;;
1765;SDS011;880;52.452;8.656;2023-06-14T12:25:31;8.32;;;7.68;;
1765;SDS011;880;52.452;8.656;2023-06-14T12:28:04;7.00;;;6.45;;
1765;SDS011;880;52.452;8.656;2023-06-14T12:30:36;7.05;;;6.70;;
1765;SDS011;880;52.452;8.656;2023-06-14T12:33:04;8.02;;;7.63;;
1765;SDS011;880;52.452;8.656;2023-06-14T12:35:32;8.18;;;7.68;;
1765;SDS011;880;52.452;8.656;2023-06-14T12:38:00;7.65;;;7.15;;
1765;SDS011;880;52.452;8.656;2023-06-14T12:40:27;8.45;;;8.05;;
1765;SDS011;880;52.452;8.656;2023-06-14T12:42:54;7.75;;;7.25;;
1765;SDS011;880;52.452;8.656;2023-06-14T12:45:21;8.75;;;7.97;;
1765;SDS011;880;52.452;8.656;2023-06-14T12:47:49;7.65;;;6.80;;
1765;SDS011;880;52.452;8.656;2023-06-14T12:50:16;7.63;;;7.13;;
1765;SDS011;880;52.452;8.656;2023-06-14T12:52:44;9.68;;;9.10;;
1765;SDS011;880;52.452;8.656;2023-06-14T12:55:11;9.20;;;8.50;;
1765;SDS011;880;52.452;8.656;2023-06-14T12:57:38;8.90;;;7.93;;
1765;SDS011;880;52.452;8.656;2023-06-14T13:00:06;8.20;;;7.50;;
1765;SDS011;880;52.452;8.656;2023-06-14T13:02:34;7.80;;;7.35;;
1765;SDS011;880;52.452;8.656;2023-06-14T13:05:01;8.25;;;7.65;;
1765;SDS011;880;52.452;8.656;2023-06-14T13:07:30;8.63;;;7.97;;
1765;SDS011;880;52.452;8.656;2023-06-14T13:09:57;8.57;;;8.05;;
1765;SDS011;880;52.452;8.656;2023-06-14T13:12:24;8.48;;;8.00;;
1765;SDS011;880;52.452;8.656;2023-06-14T13:14:51;7.03;;;6.53;;
1765;SDS011;880;52.452;8.656;2023-06-14T13:17:18;7.65;;;7.20;;
1765;SDS011;880;52.452;8.656;2023-06-14T13:19:46;7.93;;;7.43;;
1765;SDS011;880;52.452;8.656;2023-06-14T13:22:13;8.68;;;8.05;;
1765;SDS011;880;52.452;8.656;2023-06-14T13:24:39;8.15;;;7.43;;
1765;SDS011;880;52.452;8.656;2023-06-14T13:27:06;7.95;;;7.35;;
1765;SDS011;880;52.452;8.656;2023-06-14T13:29:33;8.52;;;7.38;;
1765;SDS011;880;52.452;8.656;2023-06-14T13:32:03;8.02;;;7.43;;
1765;SDS011;880;52.452;8.656;2023-06-14T13:34:31;8.30;;;7.07;;
1765;SDS011;880;52.452;8.656;2023-06-14T13:36:58;7.65;;;7.15;;
1765;SDS011;880;52.452;8.656;2023-06-14T13:39:27;7.93;;;7.15;;
1765;SDS011;880;52.452;8.656;2023-06-14T13:41:54;7.47;;;7.07;;
1765;SDS011;880;52.452;8.656;2023-06-14T13:44:21;7.10;;;6.70;;
1765;SDS011;880;52.452;8.656;2023-06-14T13:46:48;7.00;;;6.43;;
1765;SDS011;880;52.452;8.656;2023-06-14T13:49:16;7.53;;;6.82;;
1765;SDS011;880;52.452;8.656;2023-06-14T13:51:43;7.70;;;7.28;;
1765;SDS011;880;52.452;8.656;2023-06-14T13:54:12;7.72;;;7.03;;
1765;SDS011;880;52.452;8.656;2023-06-14T13:56:41;7.63;;;7.13;;
1765;SDS011;880;52.452;8.656;2023-06-14T13:59:08;8.20;;;7.70;;
1765;SDS011;880;52.452;8.656;2023-06-14T14:01:36;7.82;;;7.32;;
1765;SDS011;880;52.452;8.656;2023-06-14T14:04:03;7.45;;;6.85;;
1765;SDS011;880;52.452;8.656;2023-06-14T14:06:31;8.15;;;7.47;;
1765;SDS011;880;52.452;8.656;2023-06-14T14:08:58;8.05;;;7.50;;
1765;SDS011;880;52.452;8.656;2023-06-14T14:11:25;8.27;;;7.68;;
1765;SDS011;880;52.452;8.656;2023-06-14T14:13:52;8.23;;;7.63;;
1765;SDS011;880;52.452;8.656;2023-06-14T14:16:20;7.82;;;7.32;;
1765;SDS011;880;52.452;8.656;2023-06-14T14:18:47;7.60;;;7.00;;
1765;SDS011;880;52.452;8.656;2023-06-14T14:21:14;7.75;;;7.07;;
1765;SDS011;880;52.452;8.656;2023-06-14T14:23:41;8.27;;;7.68;;
1765;SDS011;880;52.452;8.656;2023-06-14T14:26:08;7.57;;;7.18;;
1765;SDS011;880;52.452;8.656;2023-06-14T14:28:35;8.45;;;7.90;;
1765;SDS011;880;52.452;8.656;2023-06-14T14:31:02;8.13;;;7.30;;
1765;SDS011;880;52.452;8.656;2023-06-14T14:33:29;9.93;;;8.80;;
1765;SDS011;880;52.452;8.656;2023-06-14T14:35:56;9.82;;;8.93;;
1765;SDS011;880;52.452;8.656;2023-06-14T14:38:23;7.80;;;7.40;;
1765;SDS011;880;52.452;8.656;2023-06-14T14:40:50;8.90;;;8.38;;
1765;SDS011;880;52.452;8.656;2023-06-14T14:43:17;9.07;;;8.32;;
1765;SDS011;880;52.452;8.656;2023-06-14T14:45:44;8.80;;;8.07;;
1765;SDS011;880;52.452;8.656;2023-06-14T14:48:11;8.82;;;8.20;;
1765;SDS011;880;52.452;8.656;2023-06-14T14:50:38;8.05;;;7.40;;
1765;SDS011;880;52.452;8.656;2023-06-14T14:53:05;9.00;;;8.30;;
1765;SDS011;880;52.452;8.656;2023-06-14T14:55:33;9.00;;;8.40;;
1765;SDS011;880;52.452;8.656;2023-06-14T14:58:02;8.93;;;8.43;;
1765;SDS011;880;52.452;8.656;2023-06-14T15:00:29;9.20;;;8.35;;
1765;SDS011;880;52.452;8.656;2023-06-14T15:02:56;9.60;;;9.00;;
1765;SDS011;880;52.452;8.656;2023-06-14T15:05:24;8.07;;;7.53;;
1765;SDS011;880;52.452;8.656;2023-06-14T15:07:51;8.90;;;8.15;;
1765;SDS011;880;52.452;8.656;2023-06-14T15:10:18;9.32;;;8.50;;
1765;SDS011;880;52.452;8.656;2023-06-14T15:12:45;9.70;;;9.02;;
1765;SDS011;880;52.452;8.656;2023-06-14T15:15:12;8.15;;;7.55;;
1765;SDS011;880;52.452;8.656;2023-06-14T15:17:39;8.80;;;8.20;;
1765;SDS011;880;52.452;8.656;2023-06-14T15:20:06;8.77;;;8.18;;
1765;SDS011;880;52.452;8.656;2023-06-14T15:22:33;8.40;;;7.80;;
1765;SDS011;880;52.452;8.656;2023-06-14T15:25:00;8.50;;;7.80;;
1765;SDS011;880;52.452;8.656;2023-06-14T15:27:28;8.00;;;7.38;;
1765;SDS011;880;52.452;8.656;2023-06-14T15:29:55;8.57;;;7.93;;
1765;SDS011;880;52.452;8.656;2023-06-14T15:32:22;9.05;;;8.15;;
1765;SDS011;880;52.452;8.656;2023-06-14T15:34:49;9.05;;;8.18;;
1765;SDS011;880;52.452;8.656;2023-06-14T15:37:16;8.85;;;7.90;;
1765;SDS011;880;52.452;8.656;2023-06-14T15:39:43;8.88;;;8.23;;
1765;SDS011;880;52.452;8.656;2023-06-14T15:42:10;8.75;;;8.00;;
1765;SDS011;880;52.452;8.656;2023-06-14T15:44:38;9.18;;;8.43;;
1765;SDS011;880;52.452;8.656;2023-06-14T15:47:05;15.25;;;9.15;;
1765;SDS011;880;52.452;8.656;2023-06-14T15:49:33;9.18;;;8.52;;
1765;SDS011;880;52.452;8.656;2023-06-14T15:52:00;13.52;;;8.07;;
1765;SDS011;880;52.452;8.656;2023-06-14T15:54:27;9.05;;;8.25;;
1765;SDS011;880;52.452;8.656;2023-06-14T15:56:54;8.80;;;8.20;;